Time;durP1;ratioP1;P1;durP2;ratioP2;P2;SDS_P1;SDS_P2;PMS_P1;PMS_P2;Temp;Humidity;BMP_temperature;BMP_pressure;BME280_temperature;BME280_humidity;BME280_pressure;Samples;Min_cycle;Max_cycle;Signal;HPM_P1;HPM_P2
2021/10/26 00:01:34;;;;;;;18.27;8.70;;;6.00;99.90;;;;;;5052019;28;20201;-80
2021/10/26 00:04:04;;;;;;;17.17;7.43;;;5.90;99.90;;;;;;5071084;28;20698;-81
2021/10/26 00:06:33;;;;;;;16.80;8.03;;;5.90;99.90;;;;;;5046870;28;20920;-80
2021/10/26 00:09:00;;;;;;;20.13;9.00;;;5.90;99.90;;;;;;5034607;28;20197;-81
2021/10/26 00:11:26;;;;;;;16.87;7.93;;;5.90;99.90;;;;;;5034086;28;20226;-81
2021/10/26 00:13:53;;;;;;;19.07;9.90;;;5.90;99.90;;;;;;5041965;28;20209;-80
2021/10/26 00:16:20;;;;;;;19.63;8.47;;;5.90;99.90;;;;;;5043309;28;20613;-80
2021/10/26 00:18:47;;;;;;;15.97;8.80;;;5.90;99.90;;;;;;5043354;28;20219;-81
2021/10/26 00:21:15;;;;;;;18.43;9.03;;;5.90;99.90;;;;;;5049670;28;20229;-81
2021/10/26 00:23:43;;;;;;;21.97;9.53;;;5.90;99.90;;;;;;5060856;28;20221;-80
2021/10/26 00:26:10;;;;;;;20.60;10.10;;;5.80;99.90;;;;;;5057754;28;20190;-81
2021/10/26 00:28:38;;;;;;;17.63;9.30;;;5.80;99.90;;;;;;5060121;28;20217;-81
2021/10/26 00:31:05;;;;;;;17.00;8.87;;;5.80;99.90;;;;;;5049179;28;20233;-80
2021/10/26 00:33:32;;;;;;;18.13;9.53;;;5.80;99.90;;;;;;5052475;28;20664;-81
2021/10/26 00:35:59;;;;;;;23.67;10.90;;;5.80;99.90;;;;;;5035438;28;20580;-81
2021/10/26 00:38:26;;;;;;;18.63;9.90;;;5.80;99.90;;;;;;5043764;28;20228;-80
2021/10/26 00:40:55;;;;;;;19.73;10.03;;;5.70;99.90;;;;;;5051659;28;20205;-81
2021/10/26 00:43:22;;;;;;;20.27;8.70;;;5.80;99.90;;;;;;5051328;28;20291;-80
2021/10/26 00:45:50;;;;;;;18.50;9.00;;;5.80;99.90;;;;;;5051601;28;20202;-80
2021/10/26 00:48:17;;;;;;;15.97;8.27;;;5.80;99.90;;;;;;5040676;28;20202;-80
2021/10/26 00:50:46;;;;;;;16.70;8.83;;;5.70;99.90;;;;;;5063575;28;20209;-81
2021/10/26 00:53:17;;;;;;;19.13;9.83;;;5.70;99.90;;;;;;5039693;28;20263;-81
2021/10/26 00:55:44;;;;;;;19.63;9.23;;;5.70;99.90;;;;;;5045222;28;20237;-81
2021/10/26 00:58:13;;;;;;;17.00;8.90;;;5.80;99.90;;;;;;5039860;28;20210;-81
2021/10/26 01:00:41;;;;;;;19.27;9.53;;;5.80;99.90;;;;;;5039990;28;20254;-81
2021/10/26 01:03:10;;;;;;;18.67;9.00;;;5.70;99.90;;;;;;5038687;28;20200;-81
2021/10/26 01:05:40;;;;;;;17.83;9.40;;;5.80;99.90;;;;;;5041547;28;20201;-81
2021/10/26 01:08:08;;;;;;;15.97;8.70;;;5.80;99.90;;;;;;5050894;28;20243;-82
2021/10/26 01:10:36;;;;;;;14.43;8.27;;;5.80;99.90;;;;;;5059385;28;20183;-81
2021/10/26 01:13:04;;;;;;;12.87;7.17;;;5.80;99.90;;;;;;5045235;28;20319;-81
2021/10/26 01:15:35;;;;;;;12.07;6.70;;;5.80;99.90;;;;;;5037766;28;20202;-81
2021/10/26 01:18:17;;;;;;;10.63;5.83;;;5.90;99.90;;;;;;5051316;28;20218;-81
2021/10/26 01:20:47;;;;;;;8.87;5.90;;;5.90;99.90;;;;;;5052081;28;20228;-81
2021/10/26 01:23:14;;;;;;;11.47;6.93;;;5.90;99.90;;;;;;5048948;28;20211;-81
2021/10/26 01:25:42;;;;;;;13.27;7.20;;;6.00;99.90;;;;;;5032660;28;20216;-81
2021/10/26 01:28:10;;;;;;;10.83;6.50;;;5.90;99.90;;;;;;5051407;28;20242;-82
2021/10/26 01:30:39;;;;;;;12.03;6.40;;;5.90;99.90;;;;;;5051125;28;20270;-81
2021/10/26 01:33:32;;;;;;;13.00;7.20;;;6.00;99.90;;;;;;5034646;28;20209;-81
2021/10/26 01:36:16;;;;;;;12.27;6.60;;;6.00;99.90;;;;;;5051488;28;20229;-82
2021/10/26 01:38:43;;;;;;;9.43;5.73;;;6.00;99.90;;;;;;5055625;28;20248;-82
2021/10/26 01:41:10;;;;;;;11.17;6.73;;;6.00;99.90;;;;;;5044464;28;20205;-81
2021/10/26 01:43:38;;;;;;;10.00;6.33;;;6.20;99.90;;;;;;5043980;28;20654;-82
2021/10/26 01:46:06;;;;;;;9.33;5.67;;;6.00;99.90;;;;;;5031654;28;20234;-81
2021/10/26 01:48:37;;;;;;;10.97;6.20;;;6.10;99.90;;;;;;5031597;28;20205;-82
2021/10/26 01:51:04;;;;;;;8.20;5.00;;;6.10;99.90;;;;;;5031851;28;20205;-82
2021/10/26 01:53:38;;;;;;;7.67;5.03;;;6.10;99.90;;;;;;5031420;28;20261;-81
2021/10/26 01:56:09;;;;;;;12.87;5.90;;;6.10;99.90;;;;;;5036357;28;20554;-82
2021/10/26 01:58:49;;;;;;;7.40;5.03;;;6.10;99.90;;;;;;5030874;28;20250;-82
2021/10/26 02:01:20;;;;;;;8.60;5.00;;;6.10;99.90;;;;;;5031078;28;20296;-82
2021/10/26 02:03:48;;;;;;;10.47;5.60;;;6.10;99.90;;;;;;5034843;28;20191;-82
2021/10/26 02:06:16;;;;;;;10.13;5.23;;;6.10;99.90;;;;;;5032067;28;20227;-82
2021/10/26 02:08:44;;;;;;;11.53;5.73;;;6.10;99.90;;;;;;5048347;28;20580;-82
2021/10/26 02:11:12;;;;;;;12.23;7.10;;;6.20;99.90;;;;;;5050923;28;20258;-82
2021/10/26 02:13:41;;;;;;;11.37;6.33;;;6.20;99.90;;;;;;5046901;28;20198;-82
2021/10/26 02:16:08;;;;;;;10.53;6.40;;;6.10;99.90;;;;;;5030643;28;20209;-81
2021/10/26 02:18:35;;;;;;;10.73;5.90;;;6.10;99.90;;;;;;5034760;28;20219;-79
2021/10/26 02:21:03;;;;;;;7.73;4.87;;;6.10;99.90;;;;;;5033544;28;20674;-80
2021/10/26 02:23:31;;;;;;;8.43;5.17;;;6.10;99.90;;;;;;5050252;28;20355;-81
2021/10/26 02:25:59;;;;;;;8.43;4.87;;;6.20;99.90;;;;;;5047627;28;20716;-81
2021/10/26 02:28:29;;;;;;;8.03;5.03;;;6.20;99.90;;;;;;5037548;28;20729;-81
2021/10/26 02:30:56;;;;;;;10.83;6.40;;;6.10;99.90;;;;;;5046042;28;20292;-81
2021/10/26 02:33:23;;;;;;;8.40;4.83;;;6.10;99.90;;;;;;5040327;28;20248;-82
2021/10/26 02:35:51;;;;;;;11.37;5.63;;;6.10;99.90;;;;;;5047670;28;20204;-81
2021/10/26 02:38:18;;;;;;;10.50;5.90;;;6.10;99.90;;;;;;5050401;28;20218;-80
2021/10/26 02:40:46;;;;;;;12.30;6.60;;;6.10;99.90;;;;;;5049316;28;20565;-80
2021/10/26 02:43:14;;;;;;;12.33;6.67;;;6.10;99.90;;;;;;5048998;28;20704;-81
2021/10/26 02:45:42;;;;;;;11.60;6.40;;;6.00;99.90;;;;;;5031194;28;20197;-81
2021/10/26 02:48:12;;;;;;;15.17;7.80;;;6.00;99.90;;;;;;5031058;28;20219;-81
2021/10/26 02:50:39;;;;;;;17.70;8.50;;;6.00;99.90;;;;;;5049183;28;20250;-81
2021/10/26 02:53:06;;;;;;;18.33;8.80;;;6.00;99.90;;;;;;5049143;28;20201;-81
2021/10/26 02:55:33;;;;;;;17.43;8.27;;;6.00;99.90;;;;;;5049222;28;20224;-81
2021/10/26 02:58:01;;;;;;;16.67;8.10;;;5.90;99.90;;;;;;5043002;28;20561;-81
2021/10/26 03:00:29;;;;;;;20.03;8.77;;;6.00;99.90;;;;;;5049562;28;20259;-80
2021/10/26 03:03:03;;;;;;;18.63;8.97;;;6.00;99.90;;;;;;5049344;28;20201;-81
2021/10/26 03:05:30;;;;;;;17.43;7.83;;;6.00;99.90;;;;;;5030456;28;20294;-80
2021/10/26 03:07:57;;;;;;;19.33;8.77;;;5.90;99.90;;;;;;5044068;28;20208;-80
2021/10/26 03:10:25;;;;;;;14.67;7.73;;;5.90;99.90;;;;;;5030034;28;20208;-80
2021/10/26 03:12:52;;;;;;;15.07;7.33;;;5.90;99.90;;;;;;5042815;28;20614;-79
2021/10/26 03:15:20;;;;;;;14.33;6.67;;;5.90;99.90;;;;;;5029686;28;20209;-80
2021/10/26 03:17:49;;;;;;;16.17;7.43;;;5.90;99.90;;;;;;5046115;28;20568;-80
2021/10/26 03:20:21;;;;;;;18.27;7.97;;;5.90;99.90;;;;;;5039067;28;20303;-80
2021/10/26 03:22:48;;;;;;;24.33;8.80;;;5.90;99.90;;;;;;5047329;28;20193;-80
2021/10/26 03:25:15;;;;;;;17.67;7.33;;;5.90;99.90;;;;;;5039177;28;20280;-80
2021/10/26 03:27:43;;;;;;;19.00;8.77;;;5.80;99.90;;;;;;5047391;28;20321;-80
2021/10/26 03:30:15;;;;;;;22.40;9.30;;;5.80;99.90;;;;;;5039509;28;20264;-80
2021/10/26 03:32:42;;;;;;;19.00;8.23;;;5.80;99.90;;;;;;5065084;28;20197;-80
2021/10/26 03:35:34;;;;;;;24.03;9.90;;;5.80;99.90;;;;;;5043313;28;20239;-79
2021/10/26 03:38:01;;;;;;;20.83;8.13;;;5.70;99.90;;;;;;5031209;28;20218;-81
2021/10/26 03:40:28;;;;;;;21.17;8.53;;;5.70;99.90;;;;;;5061590;28;20225;-80
2021/10/26 03:42:55;;;;;;;14.07;6.93;;;5.70;99.90;;;;;;5048764;28;20731;-80
2021/10/26 03:45:23;;;;;;;18.50;7.53;;;5.70;99.90;;;;;;5047879;28;20212;-81
2021/10/26 03:47:50;;;;;;;16.33;7.40;;;5.70;99.90;;;;;;5038313;28;20271;-80
2021/10/26 03:50:18;;;;;;;22.50;8.70;;;5.80;99.90;;;;;;5048382;28;20232;-81
2021/10/26 03:52:46;;;;;;;17.07;8.23;;;5.80;99.90;;;;;;5030329;28;20205;-81
2021/10/26 03:55:14;;;;;;;20.30;8.10;;;5.80;99.90;;;;;;5041901;28;20612;-81
2021/10/26 03:57:44;;;;;;;20.00;7.83;;;5.80;99.90;;;;;;5034991;28;20198;-81
2021/10/26 04:00:13;;;;;;;15.27;7.03;;;5.80;99.90;;;;;;5045784;28;20234;-80
2021/10/26 04:02:52;;;;;;;12.43;6.03;;;5.90;99.90;;;;;;5033890;28;20220;-80
2021/10/26 04:05:22;;;;;;;14.00;6.80;;;5.90;99.90;;;;;;5046261;28;20206;-80
2021/10/26 04:07:55;;;;;;;15.00;6.67;;;5.90;99.90;;;;;;5064325;28;20209;-81
2021/10/26 04:10:33;;;;;;;11.67;5.77;;;5.90;99.90;;;;;;5037622;28;20604;-80
2021/10/26 04:13:02;;;;;;;13.67;6.73;;;5.90;99.90;;;;;;5045252;28;20585;-80
2021/10/26 04:15:31;;;;;;;10.27;6.30;;;5.90;99.90;;;;;;5037705;28;20214;-81
2021/10/26 04:17:58;;;;;;;10.50;6.03;;;5.90;99.90;;;;;;5036555;28;20291;-81
2021/10/26 04:20:26;;;;;;;10.73;5.23;;;5.90;99.90;;;;;;5042651;28;20233;-81
2021/10/26 04:22:54;;;;;;;8.90;4.93;;;5.90;99.90;;;;;;5049767;28;20297;-81
2021/10/26 04:25:21;;;;;;;9.23;5.17;;;5.80;99.90;;;;;;5051722;28;20212;-81
2021/10/26 04:27:48;;;;;;;13.23;5.73;;;5.80;99.90;;;;;;5051555;28;20243;-81
2021/10/26 04:30:16;;;;;;;8.97;5.07;;;5.80;99.90;;;;;;5052291;28;20233;-81
2021/10/26 04:32:43;;;;;;;7.03;4.60;;;5.80;99.90;;;;;;5052389;28;20204;-81
2021/10/26 04:35:11;;;;;;;7.50;4.40;;;5.70;99.90;;;;;;5052389;28;20327;-81
2021/10/26 04:37:39;;;;;;;6.80;4.17;;;5.80;99.90;;;;;;5052750;28;20568;-81
2021/10/26 04:40:10;;;;;;;4.83;3.43;;;5.70;99.90;;;;;;5052035;28;20229;-81
2021/10/26 04:42:39;;;;;;;5.67;3.27;;;5.70;99.90;;;;;;5051474;28;20216;-81
2021/10/26 04:45:08;;;;;;;8.50;4.13;;;5.80;99.90;;;;;;5051657;28;20204;-81
2021/10/26 04:47:36;;;;;;;6.80;4.23;;;5.80;99.90;;;;;;5052361;28;20283;-80
2021/10/26 04:50:04;;;;;;;6.33;3.83;;;5.80;99.90;;;;;;5052668;28;20193;-81
2021/10/26 04:52:36;;;;;;;5.77;4.00;;;5.80;99.90;;;;;;5032793;28;20205;-81
2021/10/26 04:55:03;;;;;;;6.43;3.73;;;5.80;99.90;;;;;;5044577;28;20232;-81
2021/10/26 04:57:33;;;;;;;7.33;3.63;;;5.80;99.90;;;;;;5036553;28;20253;-81
2021/10/26 05:00:17;;;;;;;6.07;3.53;;;5.80;99.90;;;;;;5036368;28;20526;-81
2021/10/26 05:02:44;;;;;;;5.83;4.23;;;5.80;99.90;;;;;;5051780;28;20609;-81
2021/10/26 05:05:11;;;;;;;6.77;4.37;;;5.80;99.90;;;;;;5047254;28;20216;-81
2021/10/26 05:07:39;;;;;;;8.50;5.10;;;5.80;99.90;;;;;;5044395;28;20225;-80
2021/10/26 05:10:08;;;;;;;9.80;5.80;;;5.80;99.90;;;;;;5032343;28;20198;-80
2021/10/26 05:12:37;;;;;;;12.83;6.23;;;5.80;99.90;;;;;;5043813;28;20296;-80
2021/10/26 05:15:05;;;;;;;11.10;5.87;;;5.80;99.90;;;;;;5049626;28;20296;-80
2021/10/26 05:17:52;;;;;;;11.27;6.03;;;5.80;99.90;;;;;;5052695;28;20395;-80
2021/10/26 05:20:38;;;;;;;8.80;5.43;;;5.80;99.90;;;;;;5059157;28;20312;-80
2021/10/26 05:23:31;;;;;;;7.43;4.80;;;5.80;99.90;;;;;;5058075;28;20221;-81
2021/10/26 05:26:19;;;;;;;11.57;6.27;;;5.90;99.90;;;;;;5049521;28;20631;-81
2021/10/26 05:28:49;;;;;;;12.20;6.10;;;5.90;99.90;;;;;;5050490;28;20258;-80
2021/10/26 05:31:17;;;;;;;9.87;6.30;;;5.90;99.90;;;;;;5049742;28;20708;-81
2021/10/26 05:33:45;;;;;;;13.40;6.43;;;6.00;99.90;;;;;;5050656;28;20206;-81
2021/10/26 05:36:13;;;;;;;10.87;5.77;;;6.00;99.90;;;;;;5049433;28;20217;-81
2021/10/26 05:38:40;;;;;;;8.67;5.40;;;6.00;99.90;;;;;;5050729;28;20247;-81
2021/10/26 05:41:10;;;;;;;10.10;5.57;;;6.00;99.90;;;;;;5068967;28;20197;-82
2021/10/26 05:43:38;;;;;;;8.77;5.30;;;6.10;99.90;;;;;;5049665;28;20293;-81
2021/10/26 05:46:06;;;;;;;9.77;5.47;;;6.10;99.90;;;;;;5034247;28;20947;-81
2021/10/26 05:48:34;;;;;;;8.40;4.97;;;6.10;99.90;;;;;;5062866;28;20190;-80
2021/10/26 05:51:03;;;;;;;9.67;5.50;;;6.10;99.90;;;;;;5050448;28;20456;-80
2021/10/26 05:53:31;;;;;;;11.80;6.53;;;6.20;99.90;;;;;;5049557;28;20287;-80
2021/10/26 05:55:58;;;;;;;13.57;7.13;;;6.20;99.90;;;;;;5065362;28;20191;-81
2021/10/26 05:58:25;;;;;;;13.07;6.57;;;6.20;99.90;;;;;;5044780;28;20262;-80
2021/10/26 06:00:52;;;;;;;10.17;6.43;;;6.20;99.90;;;;;;5049942;28;20769;-80
2021/10/26 06:03:20;;;;;;;13.30;6.27;;;6.20;99.90;;;;;;5065612;28;20191;-80
2021/10/26 06:05:47;;;;;;;9.20;5.13;;;6.30;99.90;;;;;;5031171;28;20697;-81
2021/10/26 06:08:15;;;;;;;8.87;5.10;;;6.30;99.90;;;;;;5047759;28;20221;-81
2021/10/26 06:10:44;;;;;;;8.00;4.53;;;6.40;99.90;;;;;;5051037;28;20209;-80
2021/10/26 06:13:13;;;;;;;6.80;4.20;;;6.40;99.90;;;;;;5049874;28;20299;-80
2021/10/26 06:15:41;;;;;;;7.33;4.50;;;6.50;99.90;;;;;;5044504;28;20207;-80
2021/10/26 06:18:10;;;;;;;7.20;4.10;;;6.60;99.90;;;;;;5036376;28;20670;-81
2021/10/26 06:20:46;;;;;;;6.90;4.40;;;6.70;99.90;;;;;;5037710;28;20234;-81
2021/10/26 06:23:14;;;;;;;9.80;4.77;;;6.70;99.90;;;;;;5031163;28;20203;-80
2021/10/26 06:25:41;;;;;;;9.43;4.80;;;6.80;99.90;;;;;;5043292;28;20232;-81
2021/10/26 06:28:40;;;;;;;6.20;4.23;;;6.90;99.90;;;;;;5030208;28;20745;-81
2021/10/26 06:31:07;;;;;;;6.87;4.53;;;7.00;99.90;;;;;;5048476;28;20302;-81
2021/10/26 06:33:42;;;;;;;6.57;4.40;;;7.10;99.90;;;;;;5050214;28;20211;-80
2021/10/26 06:36:18;;;;;;;7.13;4.10;;;7.20;99.90;;;;;;5030769;28;20319;-81
2021/10/26 06:38:47;;;;;;;6.60;4.27;;;7.30;99.90;;;;;;5043101;28;20567;-81
2021/10/26 06:41:14;;;;;;;6.20;4.30;;;7.40;99.90;;;;;;5031127;28;20204;-82
2021/10/26 06:43:42;;;;;;;8.77;4.53;;;7.50;99.90;;;;;;5060989;28;20207;-81
2021/10/26 06:46:27;;;;;;;7.20;4.50;;;7.60;99.90;;;;;;5056110;28;20361;-81
2021/10/26 06:49:13;;;;;;;7.73;5.50;;;7.50;99.90;;;;;;5056350;28;20282;-81
2021/10/26 06:52:15;;;;;;;8.97;5.63;;;7.70;99.90;;;;;;4985699;28;20219;-81
2021/10/26 06:55:01;;;;;;;8.93;4.90;;;7.40;99.90;;;;;;4985720;28;20249;-81
2021/10/26 06:57:48;;;;;;;8.67;5.10;;;7.80;99.90;;;;;;4987206;28;20245;-80
2021/10/26 07:00:44;;;;;;;10.57;5.90;;;7.80;99.90;;;;;;4909310;29;20230;-80
2021/10/26 07:03:50;;;;;;;11.20;6.17;;;7.90;99.90;;;;;;4909619;29;20294;-80
2021/10/26 07:06:37;;;;;;;10.40;5.20;;;8.00;99.90;;;;;;4874813;29;20211;-81
2021/10/26 07:09:24;;;;;;;7.63;4.83;;;8.00;99.90;;;;;;4872588;29;20214;-81
2021/10/26 07:12:09;;;;;;;8.27;4.93;;;8.20;99.90;;;;;;4872664;29;20215;-81
2021/10/26 07:14:38;;;;;;;10.67;6.03;;;8.50;99.90;;;;;;4856477;29;20633;-81
2021/10/26 07:17:05;;;;;;;12.40;5.83;;;8.80;99.90;;;;;;4856192;29;20238;-81
2021/10/26 07:19:33;;;;;;;11.47;6.43;;;9.20;99.90;;;;;;4857060;29;20236;-81
2021/10/26 07:22:19;;;;;;;9.33;5.83;;;9.50;99.90;;;;;;4872654;29;20215;-81
2021/10/26 07:25:09;;;;;;;10.73;5.77;;;10.10;99.90;;;;;;4871649;29;20815;-81
2021/10/26 07:27:37;;;;;;;10.80;5.00;;;10.70;99.90;;;;;;4864081;29;20700;-80
2021/10/26 07:30:05;;;;;;;7.67;4.90;;;10.90;99.90;;;;;;4908818;29;20287;-80
2021/10/26 07:32:32;;;;;;;8.27;4.90;;;11.00;99.90;;;;;;4910756;29;20798;-80
2021/10/26 07:34:59;;;;;;;11.63;6.50;;;11.10;99.90;;;;;;4901358;29;20284;-80
2021/10/26 07:37:32;;;;;;;7.70;5.70;;;11.10;99.90;;;;;;4948278;28;20297;-80
2021/10/26 07:40:10;;;;;;;10.10;6.03;;;11.10;99.90;;;;;;4973595;28;20225;-80
2021/10/26 07:42:57;;;;;;;9.27;5.23;;;11.30;99.90;;;;;;4996960;28;20222;-81
2021/10/26 07:45:47;;;;;;;7.77;5.00;;;11.40;99.90;;;;;;5063836;28;20205;-80
2021/10/26 07:48:14;;;;;;;10.17;5.83;;;11.40;99.90;;;;;;5045599;28;20237;-80
2021/10/26 07:50:42;;;;;;;6.90;4.60;;;11.40;99.90;;;;;;5053556;28;20216;-81
2021/10/26 07:53:09;;;;;;;7.90;4.77;;;11.50;99.90;;;;;;5040737;28;20201;-81
2021/10/26 07:55:51;;;;;;;5.17;3.83;;;11.60;99.90;;;;;;5057793;28;20208;-81
2021/10/26 07:58:19;;;;;;;5.77;4.23;;;11.70;99.90;;;;;;5045143;28;20201;-81
2021/10/26 08:00:47;;;;;;;9.30;5.50;;;11.80;99.90;;;;;;5033324;28;20231;-81
2021/10/26 08:03:35;;;;;;;10.30;6.10;;;11.90;99.90;;;;;;5064626;28;20200;-81
2021/10/26 08:06:04;;;;;;;9.20;5.73;;;11.90;99.90;;;;;;5033376;28;20206;-81
2021/10/26 08:08:31;;;;;;;10.17;5.93;;;11.90;99.90;;;;;;5051409;28;20294;-81
2021/10/26 08:11:02;;;;;;;6.67;4.93;;;11.90;99.90;;;;;;5052800;28;20228;-81
2021/10/26 08:13:29;;;;;;;5.93;4.43;;;11.90;99.90;;;;;;5051546;28;20258;-81
2021/10/26 08:15:56;;;;;;;6.97;4.73;;;11.90;99.90;;;;;;5044127;28;20688;-81
2021/10/26 08:18:23;;;;;;;8.87;4.73;;;11.90;99.90;;;;;;5039429;28;20207;-81
2021/10/26 08:20:50;;;;;;;11.23;5.13;;;12.00;99.90;;;;;;5039829;28;20238;-81
2021/10/26 08:23:19;;;;;;;8.37;5.10;;;12.10;99.90;;;;;;5052866;28;20202;-81
2021/10/26 08:25:53;;;;;;;7.40;4.93;;;12.30;99.90;;;;;;5051385;28;20197;-81
2021/10/26 08:28:24;;;;;;;6.40;5.10;;;12.40;99.90;;;;;;5032187;28;20220;-81
2021/10/26 08:30:56;;;;;;;6.37;4.57;;;12.50;99.90;;;;;;5036330;28;20666;-81
2021/10/26 08:33:41;;;;;;;8.67;5.47;;;12.80;99.90;;;;;;5033297;28;20697;-81
2021/10/26 08:36:08;;;;;;;10.23;5.23;;;13.30;99.90;;;;;;5051707;28;20203;-81
2021/10/26 08:38:37;;;;;;;8.13;4.87;;;14.00;99.90;;;;;;5052347;28;20241;-81
2021/10/26 08:41:08;;;;;;;7.00;4.87;;;14.80;99.90;;;;;;5052633;28;20274;-80
2021/10/26 08:43:37;;;;;;;6.97;4.77;;;15.90;99.90;;;;;;5050949;28;20213;-81
2021/10/26 08:46:09;;;;;;;9.03;5.33;;;17.00;99.00;;;;;;5048188;28;20224;-81
2021/10/26 08:48:40;;;;;;;7.20;4.87;;;18.30;96.90;;;;;;5032033;28;20564;-80
2021/10/26 08:51:28;;;;;;;6.80;4.80;;;19.30;95.10;;;;;;5007535;28;20242;-81
2021/10/26 08:53:57;;;;;;;6.17;4.37;;;20.80;93.00;;;;;;4991166;28;20298;-81
2021/10/26 08:56:47;;;;;;;6.90;5.10;;;21.70;90.60;;;;;;4949359;29;20232;-80
2021/10/26 08:59:35;;;;;;;5.15;4.22;;;21.50;87.00;;;;;;4948574;29;20235;-80
2021/10/26 09:02:02;;;;;;;4.90;3.40;;;20.80;87.00;;;;;;4949115;28;20215;-81
2021/10/26 09:04:31;;;;;;;8.53;4.07;;;20.10;87.90;;;;;;4934234;29;20710;-80
2021/10/26 09:07:04;;;;;;;6.87;4.83;;;19.60;88.70;;;;;;4932984;29;20232;-80
2021/10/26 09:09:34;;;;;;;6.50;4.20;;;19.20;88.60;;;;;;4932971;29;20705;-81
2021/10/26 09:18:11;;;;;;;5.40;4.60;;;18.00;88.90;;;;;;4949674;29;20557;-81
2021/10/26 09:21:25;;;;;;;4.63;3.67;;;17.90;88.10;;;;;;4930728;29;20678;-81
2021/10/26 09:23:55;;;;;;;6.20;4.10;;;17.80;87.90;;;;;;4930433;29;20265;-80
2021/10/26 09:26:27;;;;;;;6.87;4.00;;;17.70;88.00;;;;;;4930180;29;20302;-81
2021/10/26 09:28:56;;;;;;;6.70;4.67;;;17.50;87.80;;;;;;4940168;29;20212;-80
2021/10/26 09:31:29;;;;;;;6.37;4.70;;;17.40;88.10;;;;;;4929895;29;20195;-81
2021/10/26 09:34:03;;;;;;;6.23;4.93;;;17.30;88.20;;;;;;4968889;28;20323;-81
2021/10/26 09:36:32;;;;;;;6.90;5.37;;;17.10;88.40;;;;;;4996724;28;20265;-81
2021/10/26 09:39:18;;;;;;;8.30;5.53;;;17.00;88.50;;;;;;4987963;28;20262;-80
2021/10/26 09:42:12;;;;;;;9.67;5.60;;;16.80;88.80;;;;;;4996450;28;20227;-80
2021/10/26 09:44:46;;;;;;;8.30;5.23;;;16.60;89.00;;;;;;4987220;28;20206;-80
2021/10/26 09:47:21;;;;;;;6.90;5.50;;;16.50;89.20;;;;;;4992971;28;20229;-80
2021/10/26 09:49:53;;;;;;;5.17;4.03;;;16.50;89.20;;;;;;4990597;28;20284;-80
2021/10/26 09:52:25;;;;;;;4.40;4.00;;;16.60;89.30;;;;;;5025917;28;20693;-80
2021/10/26 09:55:14;;;;;;;4.80;3.53;;;17.30;89.40;;;;;;5049982;28;20240;-81
2021/10/26 09:57:44;;;;;;;4.63;3.83;;;18.90;87.60;;;;;;5036216;28;20303;-81
2021/10/26 10:00:12;;;;;;;4.60;3.57;;;20.50;83.60;;;;;;5043242;28;20309;-81
2021/10/26 10:02:41;;;;;;;5.38;4.03;;;21.50;79.30;;;;;;5032308;28;20633;-81
2021/10/26 10:05:21;;;;;;;4.57;3.40;;;21.90;76.50;;;;;;5044276;28;20225;-81
2021/10/26 10:07:48;;;;;;;5.35;4.47;;;21.90;75.00;;;;;;5043957;28;20252;-81
2021/10/26 10:10:15;;;;;;;4.35;3.47;;;21.60;73.40;;;;;;5030528;28;20244;-81
2021/10/26 10:12:45;;;;;;;3.03;2.72;;;21.30;73.00;;;;;;5043319;28;20462;-81
2021/10/26 10:15:16;;;;;;;3.05;2.75;;;20.90;73.40;;;;;;5054198;28;20232;-81
2021/10/26 10:17:47;;;;;;;3.15;2.70;;;20.70;73.80;;;;;;5049921;28;20202;-81
2021/10/26 10:20:14;;;;;;;5.10;3.60;;;20.40;74.00;;;;;;5041797;28;20232;-81
2021/10/26 10:22:42;;;;;;;2.47;2.28;;;20.20;73.90;;;;;;5044484;28;20197;-81
2021/10/26 10:25:11;;;;;;;3.22;2.92;;;20.00;74.20;;;;;;5048546;28;20194;-81
2021/10/26 10:27:43;;;;;;;3.38;2.78;;;19.80;74.00;;;;;;5043508;28;20224;-81
2021/10/26 10:30:11;;;;;;;4.28;3.72;;;19.60;73.40;;;;;;5039860;28;20209;-81
2021/10/26 10:32:39;;;;;;;3.28;3.00;;;19.40;72.50;;;;;;5050597;28;20197;-80
2021/10/26 10:35:15;;;;;;;4.38;3.50;;;19.10;72.60;;;;;;5051017;28;20227;-81
2021/10/26 10:37:43;;;;;;;3.80;2.88;;;18.90;72.60;;;;;;5049859;28;20206;-81
2021/10/26 10:40:12;;;;;;;3.00;2.78;;;18.70;73.20;;;;;;5055774;28;20678;-80
2021/10/26 10:42:47;;;;;;;3.90;2.97;;;18.50;73.20;;;;;;5049463;28;20201;-81
2021/10/26 10:45:25;;;;;;;2.65;2.40;;;18.30;73.30;;;;;;5048815;28;20234;-81
2021/10/26 10:47:54;;;;;;;2.97;2.58;;;18.00;73.60;;;;;;5058108;28;20290;-80
2021/10/26 10:50:34;;;;;;;4.47;3.08;;;17.80;73.80;;;;;;5046802;28;20200;-80
2021/10/26 10:53:14;;;;;;;3.47;2.50;;;17.70;74.00;;;;;;5060501;28;20508;-80
2021/10/26 10:55:44;;;;;;;2.35;1.98;;;17.50;74.40;;;;;;5052150;28;20206;-80
2021/10/26 10:58:40;;;;;;;2.22;2.03;;;17.40;74.80;;;;;;5043392;28;20231;-80
2021/10/26 11:01:30;;;;;;;2.17;2.00;;;17.30;75.00;;;;;;5035141;28;20770;-80
2021/10/26 11:03:59;;;;;;;2.53;1.90;;;17.30;75.30;;;;;;5047860;28;20290;-80
2021/10/26 11:06:55;;;;;;;2.80;2.20;;;17.20;75.40;;;;;;5050159;28;20196;-80
2021/10/26 11:09:44;;;;;;;2.27;1.97;;;17.10;75.60;;;;;;5053421;28;20206;-81
2021/10/26 11:12:28;;;;;;;1.87;1.77;;;17.00;75.80;;;;;;5035129;28;20556;-81
2021/10/26 11:14:57;;;;;;;1.60;1.50;;;16.90;76.00;;;;;;5052328;28;20434;-81
2021/10/26 11:17:59;;;;;;;2.10;1.90;;;16.80;76.30;;;;;;5052619;28;20197;-81
2021/10/26 11:20:52;;;;;;;1.97;1.87;;;16.70;76.60;;;;;;5052031;28;20221;-81
2021/10/26 11:23:51;;;;;;;3.63;2.20;;;16.60;76.70;;;;;;5060647;28;20243;-81
2021/10/26 11:26:20;;;;;;;3.87;2.90;;;16.50;76.80;;;;;;5058421;28;20217;-81
2021/10/26 11:28:58;;;;;;;3.97;3.20;;;16.40;77.10;;;;;;5052475;28;20229;-81
2021/10/26 11:31:28;;;;;;;3.97;2.77;;;16.30;77.40;;;;;;5054227;28;20229;-81
2021/10/26 11:34:04;;;;;;;3.43;2.77;;;16.20;77.70;;;;;;5047606;28;20522;-81
2021/10/26 11:36:33;;;;;;;3.40;3.10;;;16.10;78.10;;;;;;5034924;28;20626;-80
2021/10/26 11:39:07;;;;;;;4.33;3.37;;;16.00;78.50;;;;;;5049940;28;20210;-80
2021/10/26 11:41:36;;;;;;;3.90;3.13;;;15.90;78.70;;;;;;5053484;28;20700;-81
2021/10/26 11:44:05;;;;;;;4.17;3.43;;;15.80;79.00;;;;;;5057856;28;20764;-80
2021/10/26 11:46:34;;;;;;;4.03;3.27;;;15.80;79.60;;;;;;5058964;28;20198;-80
2021/10/26 11:49:05;;;;;;;3.30;2.83;;;15.70;80.00;;;;;;5053172;28;20696;-81
2021/10/26 11:51:35;;;;;;;3.40;2.77;;;15.60;80.40;;;;;;5033597;28;20294;-80
2021/10/26 11:54:06;;;;;;;3.67;3.17;;;15.60;80.90;;;;;;5033627;28;20233;-80
2021/10/26 11:56:38;;;;;;;3.83;3.43;;;15.60;81.50;;;;;;5060502;28;20194;-81
2021/10/26 11:59:10;;;;;;;3.77;2.73;;;15.50;82.10;;;;;;5051901;28;20217;-80
2021/10/26 12:01:50;;;;;;;3.43;3.13;;;15.50;82.80;;;;;;5051889;28;20627;-81
2021/10/26 12:04:21;;;;;;;3.40;2.97;;;15.40;83.50;;;;;;5050275;28;20236;-81
2021/10/26 12:06:50;;;;;;;5.50;3.63;;;15.40;84.20;;;;;;5064760;28;20236;-80
2021/10/26 12:09:19;;;;;;;5.87;4.23;;;15.30;85.00;;;;;;5043886;28;20225;-81
2021/10/26 12:11:48;;;;;;;7.37;4.50;;;15.20;85.70;;;;;;5057563;28;20325;-80
2021/10/26 12:14:22;;;;;;;5.57;4.30;;;15.10;86.50;;;;;;5052579;28;20316;-81
2021/10/26 12:17:19;;;;;;;4.90;3.90;;;15.10;87.20;;;;;;5040722;28;20213;-81
2021/10/26 12:19:49;;;;;;;6.00;4.23;;;15.00;87.90;;;;;;5063353;28;20722;-81
2021/10/26 12:22:20;;;;;;;6.60;4.57;;;15.00;88.60;;;;;;5059361;28;20222;-80
2021/10/26 12:24:51;;;;;;;10.20;5.00;;;15.00;89.40;;;;;;5064137;28;21160;-80
2021/10/26 12:27:30;;;;;;;8.70;5.57;;;14.90;90.00;;;;;;5063294;28;20661;-81
2021/10/26 12:30:10;;;;;;;7.23;5.10;;;15.00;90.40;;;;;;5053292;28;20205;-81
2021/10/26 12:32:37;;;;;;;7.33;5.13;;;15.00;90.60;;;;;;5049177;28;20292;-81
2021/10/26 12:35:09;;;;;;;5.83;5.10;;;15.00;91.00;;;;;;5033519;28;20211;-81
2021/10/26 12:37:37;;;;;;;7.57;5.47;;;15.00;91.20;;;;;;5064183;28;20205;-81
2021/10/26 12:40:13;;;;;;;7.30;5.27;;;15.00;91.40;;;;;;5043267;28;20313;-81
2021/10/26 12:42:43;;;;;;;7.50;4.27;;;15.00;91.60;;;;;;5056848;28;20242;-81
2021/10/26 12:45:12;;;;;;;6.67;4.63;;;15.00;91.90;;;;;;5052450;28;20209;-81
2021/10/26 12:47:54;;;;;;;5.70;3.57;;;14.90;92.20;;;;;;5053799;28;20205;-81
2021/10/26 12:50:36;;;;;;;6.80;4.70;;;14.90;92.50;;;;;;5045661;28;20303;-81
2021/10/26 12:53:33;;;;;;;5.53;4.23;;;14.90;92.80;;;;;;5062589;28;20232;-81
2021/10/26 12:56:05;;;;;;;4.20;3.20;;;14.80;93.30;;;;;;5036377;28;20198;-81
2021/10/26 12:58:40;;;;;;;3.13;2.83;;;14.80;93.50;;;;;;5044565;28;20478;-81
2021/10/26 13:01:17;;;;;;;3.90;3.50;;;14.70;93.80;;;;;;5031934;28;20325;-80
2021/10/26 13:04:07;;;;;;;5.40;3.87;;;14.70;94.20;;;;;;5048205;28;20606;-82
2021/10/26 13:06:37;;;;;;;5.80;3.83;;;14.70;94.70;;;;;;5045453;28;20220;-82
2021/10/26 13:09:07;;;;;;;8.53;4.83;;;14.60;95.00;;;;;;5041550;28;20200;-81
2021/10/26 13:11:38;;;;;;;6.50;4.10;;;14.50;95.40;;;;;;5051322;28;20205;-81
2021/10/26 13:14:09;;;;;;;7.37;3.47;;;14.50;95.70;;;;;;5051193;28;20341;-81
2021/10/26 13:16:40;;;;;;;4.10;3.70;;;14.50;96.00;;;;;;5040222;28;20204;-81
2021/10/26 13:19:12;;;;;;;6.43;4.53;;;14.40;96.20;;;;;;5044134;28;20236;-81
2021/10/26 13:21:41;;;;;;;6.00;4.13;;;14.60;96.70;;;;;;5032092;28;20226;-81